createdAt,value
2018-04-12T00:00:11.563Z,11.08
2018-04-12T00:01:11.534Z,11.02
2018-04-12T00:02:11.517Z,11.02
2018-04-12T00:03:11.249Z,10.94
2018-04-12T00:04:11.464Z,10.96
2018-04-12T00:05:11.498Z,10.93
2018-04-12T00:06:11.428Z,10.99
2018-04-12T00:07:11.395Z,10.94
2018-04-12T00:08:11.382Z,10.9
2018-04-12T00:09:11.359Z,10.9
2018-04-12T00:10:11.077Z,10.86
2018-04-12T00:11:11.052Z,10.9
2018-04-12T00:12:11.280Z,10.86
2018-04-12T00:13:11.256Z,10.81
2018-04-12T00:14:11.231Z,10.81
2018-04-12T00:15:11.211Z,10.81
2018-04-12T00:16:11.181Z,10.79
2018-04-12T00:17:10.911Z,10.78
2018-04-12T00:18:10.889Z,10.81
2018-04-12T00:19:10.863Z,10.72
2018-04-12T00:20:10.842Z,10.75
2018-04-12T00:21:10.817Z,10.72
2018-04-12T00:22:11.044Z,10.69
2018-04-12T00:23:10.782Z,10.68
2018-04-12T00:24:10.745Z,10.72
2018-04-12T00:25:10.971Z,10.68
2018-04-12T00:26:10.696Z,10.69
2018-04-12T00:27:10.688Z,10.75
2018-04-12T00:28:10.902Z,10.75
2018-04-12T00:29:10.625Z,10.76
2018-04-12T00:30:10.603Z,10.63
2018-04-12T00:31:10.577Z,10.69
2018-04-12T00:32:10.801Z,10.67
2018-04-12T00:33:10.779Z,10.56
2018-04-12T00:34:10.258Z,10.6
2018-04-12T00:35:10.484Z,10.59
2018-04-12T00:36:10.712Z,10.59
2018-04-12T00:37:10.709Z,10.53
2018-04-12T00:38:10.660Z,10.54
2018-04-12T00:39:10.644Z,10.61
2018-04-12T00:40:10.380Z,10.59
2018-04-12T00:41:10.607Z,10.57
2018-04-12T00:42:10.571Z,10.49
2018-04-12T00:43:10.543Z,10.57
2018-04-12T00:44:10.519Z,10.54
2018-04-12T00:45:10.253Z,10.54
2018-04-12T00:46:09.973Z,10.53
2018-04-12T00:47:10.197Z,10.46
2018-04-12T00:48:10.173Z,10.56
2018-04-12T00:49:10.400Z,10.44
2018-04-12T00:50:10.131Z,10.51
2018-04-12T00:51:10.351Z,10.4
2018-04-12T00:52:10.338Z,10.38
2018-04-12T00:53:10.302Z,10.4
2018-04-12T00:54:10.278Z,10.42
2018-04-12T00:55:10.260Z,10.41
2018-04-12T00:56:10.234Z,10.53
2018-04-12T00:57:10.216Z,10.42
2018-04-12T00:58:10.180Z,10.41
2018-04-12T00:59:10.164Z,10.38
2018-04-12T01:00:09.885Z,10.42
2018-04-12T01:01:09.612Z,10.41
2018-04-12T01:02:09.590Z,10.33
2018-04-12T01:03:10.069Z,10.38
2018-04-12T01:04:09.797Z,10.34
2018-04-12T01:05:10.019Z,10.38
2018-04-12T01:06:09.743Z,10.35
2018-04-12T01:07:09.967Z,10.34
2018-04-12T01:08:09.945Z,10.37
2018-04-12T01:09:09.913Z,10.25
2018-04-12T01:10:09.898Z,10.19
2018-04-12T01:11:09.374Z,10.19
2018-04-12T01:12:09.599Z,10.34
2018-04-12T01:13:09.577Z,10.35
2018-04-12T01:14:09.800Z,10.33
2018-04-12T01:15:09.528Z,10.37
2018-04-12T01:16:09.507Z,10.22
2018-04-12T01:17:09.504Z,10.23
2018-04-12T01:18:09.703Z,10.16
2018-04-12T01:19:09.430Z,10.31
2018-04-12T01:20:09.155Z,10.22
2018-04-12T01:21:09.380Z,10.13
2018-04-12T01:22:09.357Z,10.2
2018-04-12T01:23:09.583Z,10.19
2018-04-12T01:24:09.557Z,10.16
2018-04-12T01:25:09.285Z,10.17
2018-04-12T01:26:09.508Z,10.25
2018-04-12T01:27:09.481Z,10.15
2018-04-12T01:28:09.223Z,10.13
2018-04-12T01:29:09.187Z,10.05
2018-04-12T01:30:09.263Z,10.1
2018-04-12T01:31:09.138Z,10.19
2018-04-12T01:32:09.361Z,10.07
2018-04-12T01:33:09.337Z,10.17
2018-04-12T01:34:09.321Z,10.12
2018-04-12T01:35:09.291Z,10.15
2018-04-12T01:36:09.268Z,10.15
2018-04-12T01:37:09.244Z,10.09
2018-04-12T01:38:09.216Z,10.09
2018-04-12T01:39:09.202Z,10.04
2018-04-12T01:40:09.176Z,9.99
2018-04-12T01:41:08.899Z,10.04
2018-04-12T01:42:09.128Z,10.12
2018-04-12T01:43:09.095Z,10.01
2018-04-12T01:44:09.071Z,10.04
2018-04-12T01:45:09.049Z,10.12
2018-04-12T01:46:08.778Z,10.05
2018-04-12T01:47:08.749Z,10.04
2018-04-12T01:48:08.726Z,10.05
2018-04-12T01:49:08.952Z,10.02
2018-04-12T01:50:08.676Z,9.99
2018-04-12T01:51:08.902Z,10.1
2018-04-12T01:52:08.624Z,10.01
2018-04-12T01:53:08.862Z,10.01
2018-04-12T01:54:08.832Z,10.02
2018-04-12T01:55:08.809Z,9.95
2018-04-12T01:56:08.779Z,10.01
2018-04-12T01:57:08.260Z,9.97
2018-04-12T01:58:08.729Z,9.91
2018-04-12T01:59:08.718Z,9.94
2018-04-12T02:00:08.433Z,9.92
2018-04-12T02:01:08.413Z,9.99
2018-04-12T02:02:08.138Z,9.91
2018-04-12T02:03:08.609Z,9.99
2018-04-12T02:04:08.341Z,9.97
2018-04-12T02:05:08.066Z,9.97
2018-04-12T02:06:08.537Z,9.94
2018-04-12T02:07:08.262Z,9.91
2018-04-12T02:08:08.237Z,9.95
2018-04-12T02:09:08.462Z,10.04
2018-04-12T02:10:08.446Z,9.99
2018-04-12T02:11:08.411Z,9.98
2018-04-12T02:12:08.152Z,9.91
2018-04-12T02:13:08.124Z,9.99
2018-04-12T02:14:08.345Z,9.89
2018-04-12T02:15:08.071Z,9.89
2018-04-12T02:16:08.050Z,9.91
2018-04-12T02:17:08.019Z,9.84
2018-04-12T02:18:07.995Z,9.91
2018-04-12T02:19:07.973Z,9.86
2018-04-12T02:20:07.706Z,9.79
2018-04-12T02:21:08.189Z,9.84
2018-04-12T02:22:07.898Z,9.86
2018-04-12T02:23:08.124Z,9.8
2018-04-12T02:24:07.850Z,9.82
2018-04-12T02:25:07.825Z,9.79
2018-04-12T02:26:07.799Z,9.73
2018-04-12T02:27:07.778Z,9.74
2018-04-12T02:28:08.001Z,9.68
2018-04-12T02:29:07.973Z,9.76
2018-04-12T02:30:07.714Z,9.65
2018-04-12T02:31:07.926Z,9.66
2018-04-12T02:32:07.918Z,9.68
2018-04-12T02:33:07.875Z,9.77
2018-04-12T02:34:07.611Z,9.65
2018-04-12T02:35:07.383Z,9.65
2018-04-12T02:36:07.813Z,9.69
2018-04-12T02:37:07.283Z,9.66
2018-04-12T02:38:07.758Z,9.69
2018-04-12T02:39:07.735Z,9.55
2018-04-12T02:40:07.459Z,9.74
2018-04-12T02:41:07.681Z,9.74
2018-04-12T02:42:07.159Z,9.77
2018-04-12T02:43:07.633Z,9.64
2018-04-12T02:44:07.614Z,9.73
2018-04-12T02:45:07.335Z,9.68
2018-04-12T02:46:07.556Z,9.72
2018-04-12T02:47:07.534Z,9.68
2018-04-12T02:48:07.260Z,9.66
2018-04-12T02:49:07.489Z,9.66
2018-04-12T02:50:07.215Z,9.69
2018-04-12T02:51:07.442Z,9.68
2018-04-12T02:52:07.419Z,9.66
2018-04-12T02:53:07.388Z,9.64
2018-04-12T02:54:07.135Z,9.64
2018-04-12T02:55:07.108Z,9.65
2018-04-12T02:56:07.344Z,9.65
2018-04-12T02:57:07.041Z,9.65
2018-04-12T02:58:07.011Z,9.61
2018-04-12T02:59:07.245Z,9.64
2018-04-12T03:00:07.237Z,9.58
2018-04-12T03:01:06.941Z,9.56
2018-04-12T03:02:06.934Z,9.64
2018-04-12T03:03:06.901Z,9.61
2018-04-12T03:04:06.869Z,9.55
2018-04-12T03:05:07.123Z,9.61
2018-04-12T03:06:07.111Z,9.62
2018-04-12T03:07:07.037Z,9.55
2018-04-12T03:08:07.024Z,9.54
2018-04-12T03:09:06.746Z,9.5
2018-04-12T03:10:06.966Z,9.48
2018-04-12T03:11:06.942Z,9.43
2018-04-12T03:12:06.923Z,9.43
2018-04-12T03:13:06.639Z,9.48
2018-04-12T03:14:06.867Z,9.54
2018-04-12T03:15:06.599Z,9.51
2018-04-12T03:16:06.573Z,9.44
2018-04-12T03:17:06.543Z,9.44
2018-04-12T03:18:06.772Z,9.41
2018-04-12T03:19:06.495Z,9.5
2018-04-12T03:20:06.224Z,9.43
2018-04-12T03:21:06.697Z,9.32
2018-04-12T03:22:06.171Z,9.34
2018-04-12T03:23:06.643Z,9.37
2018-04-12T03:24:06.369Z,9.36
2018-04-12T03:25:06.354Z,9.34
2018-04-12T03:26:06.575Z,9.37
2018-04-12T03:27:06.299Z,9.37
2018-04-12T03:28:06.272Z,9.36
2018-04-12T03:29:06.254Z,9.37
2018-04-12T03:30:06.232Z,9.32
2018-04-12T03:31:06.447Z,9.36
2018-04-12T03:32:06.177Z,9.39
2018-04-12T03:33:06.396Z,9.34
2018-04-12T03:34:06.371Z,9.37
2018-04-12T03:35:06.094Z,9.31
2018-04-12T03:36:05.823Z,9.4
2018-04-12T03:37:06.049Z,9.32
2018-04-12T03:38:06.273Z,9.31
2018-04-12T03:39:05.998Z,9.36
2018-04-12T03:40:05.977Z,9.36
2018-04-12T03:41:05.949Z,9.4
2018-04-12T03:42:05.959Z,9.28
2018-04-12T03:43:05.897Z,9.28
2018-04-12T03:44:06.122Z,9.21
2018-04-12T03:45:06.103Z,9.21
2018-04-12T03:46:06.075Z,9.22
2018-04-12T03:47:06.049Z,9.21
2018-04-12T03:48:06.023Z,9.19
2018-04-12T03:49:06.196Z,9.22
2018-04-12T03:50:05.744Z,9.26
2018-04-12T03:51:05.699Z,9.22
2018-04-12T03:52:05.676Z,9.28
2018-04-12T03:53:05.645Z,9.26
2018-04-12T03:54:05.872Z,9.28
2018-04-12T03:55:05.847Z,9.21
2018-04-12T03:56:05.827Z,9.23
2018-04-12T03:57:06.660Z,9.25
2018-04-12T03:58:05.775Z,9.26
2018-04-12T03:59:05.499Z,9.21
2018-04-12T04:00:05.725Z,9.21
2018-04-12T04:01:05.695Z,9.22
2018-04-12T04:02:05.674Z,9.21
2018-04-12T04:03:05.398Z,9.19
2018-04-12T04:04:05.619Z,9.19
2018-04-12T04:05:05.614Z,9.21
2018-04-12T04:06:05.572Z,9.18
2018-04-12T04:07:05.553Z,9.16
2018-04-12T04:08:05.525Z,9.14
2018-04-12T04:09:05.501Z,9.13
2018-04-12T04:10:05.225Z,9.13
2018-04-12T04:11:05.199Z,9.14
2018-04-12T04:12:05.229Z,9.11
2018-04-12T04:13:05.414Z,9.11
2018-04-12T04:14:05.124Z,9.18
2018-04-12T04:15:05.100Z,9.13
2018-04-12T04:16:05.073Z,9.13
2018-04-12T04:17:05.305Z,9.14
2018-04-12T04:18:05.277Z,9.1
2018-04-12T04:19:04.999Z,9.16
2018-04-12T04:20:04.977Z,9.11
2018-04-12T04:21:05.192Z,9.1
2018-04-12T04:22:05.171Z,9.08
2018-04-12T04:23:05.146Z,9.13
2018-04-12T04:24:04.869Z,8.99
2018-04-12T04:25:04.856Z,9
2018-04-12T04:26:05.066Z,9
2018-04-12T04:27:05.048Z,9.02
2018-04-12T04:28:05.075Z,8.99
2018-04-12T04:29:05.000Z,9
2018-04-12T04:30:04.475Z,9.06
2018-04-12T04:31:04.943Z,8.97
2018-04-12T04:32:04.674Z,9.06
2018-04-12T04:33:04.653Z,8.95
2018-04-12T04:34:04.621Z,9.04
2018-04-12T04:35:04.608Z,9.02
2018-04-12T04:36:04.575Z,9.04
2018-04-12T04:37:04.798Z,9
2018-04-12T04:38:04.272Z,9.03
2018-04-12T04:39:04.496Z,8.99
2018-04-12T04:40:04.472Z,8.94
2018-04-12T04:41:04.443Z,8.99
2018-04-12T04:42:04.674Z,8.95
2018-04-12T04:43:04.649Z,9.02
2018-04-12T04:44:04.619Z,8.94
2018-04-12T04:45:04.350Z,8.97
2018-04-12T04:46:04.574Z,8.95
2018-04-12T04:47:04.298Z,8.95
2018-04-12T04:48:04.514Z,8.94
2018-04-12T04:49:03.994Z,8.89
2018-04-12T04:50:04.220Z,8.88
2018-04-12T04:51:04.195Z,9.03
2018-04-12T04:52:04.168Z,8.88
2018-04-12T04:53:04.142Z,8.92
2018-04-12T04:54:04.372Z,8.89
2018-04-12T04:55:04.149Z,8.87
2018-04-12T04:56:04.320Z,8.89
2018-04-12T04:57:04.055Z,8.88
2018-04-12T04:58:04.272Z,8.85
2018-04-12T04:59:03.995Z,8.84
2018-04-12T05:00:03.967Z,8.85
2018-04-12T05:01:03.949Z,8.87
2018-04-12T05:02:03.919Z,8.84
2018-04-12T05:03:03.901Z,8.91
2018-04-12T05:04:03.619Z,8.85
2018-04-12T05:05:03.846Z,8.85
2018-04-12T05:06:04.113Z,8.87
2018-04-12T05:07:04.043Z,8.85
2018-04-12T05:08:04.024Z,8.87
2018-04-12T05:09:03.988Z,8.81
2018-04-12T05:10:03.967Z,8.82
2018-04-12T05:11:03.943Z,8.91
2018-04-12T05:12:03.668Z,8.88
2018-04-12T05:13:03.887Z,8.85
2018-04-12T05:14:03.814Z,8.95
2018-04-12T05:15:03.841Z,8.91
2018-04-12T05:16:03.814Z,8.97
2018-04-12T05:17:03.538Z,8.94
2018-04-12T05:18:03.900Z,8.92
2018-04-12T05:19:03.845Z,8.88
2018-04-12T05:20:04.379Z,8.92
2018-04-12T05:21:03.355Z,9.03
2018-04-12T05:22:04.436Z,9.04
2018-04-12T05:23:03.644Z,9.03
2018-04-12T05:24:03.364Z,9.02
2018-04-12T05:25:03.586Z,9.1
2018-04-12T05:26:03.316Z,9.08
2018-04-12T05:27:03.543Z,9.08
2018-04-12T05:28:03.516Z,9.16
2018-04-12T05:29:03.494Z,9.18
2018-04-12T05:30:03.213Z,9.19
2018-04-12T05:31:03.440Z,9.21
2018-04-12T05:32:03.163Z,9.19
2018-04-12T05:33:03.404Z,9.25
2018-04-12T05:34:03.122Z,9.23
2018-04-12T05:35:03.215Z,9.22
2018-04-12T05:36:03.071Z,9.23
2018-04-12T05:37:03.827Z,9.23
2018-04-12T05:38:03.373Z,9.21
2018-04-12T05:39:02.994Z,9.19
2018-04-12T05:40:03.256Z,9.28
2018-04-12T05:41:03.280Z,9.31
2018-04-12T05:42:03.171Z,9.4
2018-04-12T05:43:03.149Z,9.41
2018-04-12T05:44:02.873Z,9.34
2018-04-12T05:45:02.855Z,9.37
2018-04-12T05:46:03.072Z,9.34
2018-04-12T05:47:02.794Z,9.41
2018-04-12T05:48:02.524Z,9.44
2018-04-12T05:49:02.999Z,9.5
2018-04-12T05:50:02.973Z,9.46
2018-04-12T05:51:02.698Z,9.5
2018-04-12T05:52:02.926Z,9.58
2018-04-12T05:53:02.657Z,9.62
2018-04-12T05:54:02.883Z,9.58
2018-04-12T05:55:02.853Z,9.72
2018-04-12T05:56:02.826Z,9.69
2018-04-12T05:57:02.306Z,9.74
2018-04-12T05:58:02.530Z,9.77
2018-04-12T05:59:02.509Z,9.89
2018-04-12T06:00:02.736Z,9.97
2018-04-12T06:01:02.707Z,9.99
2018-04-12T06:02:02.436Z,10.01
2018-04-12T06:03:02.412Z,10.02
2018-04-12T06:04:02.645Z,10.04
2018-04-12T06:05:02.610Z,10.02
2018-04-12T06:06:02.591Z,10.05
2018-04-12T06:07:02.566Z,10.12
2018-04-12T06:08:02.541Z,10.12
2018-04-12T06:09:02.526Z,10.22
2018-04-12T06:10:02.500Z,10.16
2018-04-12T06:11:02.224Z,10.17
2018-04-12T06:12:02.456Z,10.23
2018-04-12T06:13:02.638Z,10.31
2018-04-12T06:14:02.430Z,10.41
2018-04-12T06:15:02.895Z,10.38
2018-04-12T06:16:02.358Z,10.46
2018-04-12T06:17:02.334Z,10.53
2018-04-12T06:18:02.306Z,10.46
2018-04-12T06:19:02.279Z,10.64
2018-04-12T06:20:02.260Z,10.48
2018-04-12T06:21:01.994Z,10.53
2018-04-12T06:22:02.220Z,10.57
2018-04-12T06:23:02.194Z,10.63
2018-04-12T06:24:02.267Z,10.63
2018-04-12T06:25:01.901Z,10.75
2018-04-12T06:26:02.126Z,10.79
2018-04-12T06:27:02.109Z,10.86
2018-04-12T06:28:01.892Z,10.74
2018-04-12T06:29:01.951Z,10.86
2018-04-12T06:30:01.786Z,10.86
2018-04-12T06:31:01.763Z,10.84
2018-04-12T06:32:01.985Z,10.89
2018-04-12T06:33:01.965Z,10.82
2018-04-12T06:34:01.945Z,10.9
2018-04-12T06:35:01.422Z,10.97
2018-04-12T06:36:01.901Z,10.92
2018-04-12T06:37:01.870Z,10.96
2018-04-12T06:38:01.607Z,10.94
2018-04-12T06:39:01.827Z,10.99
2018-04-12T06:40:01.814Z,11.08
2018-04-12T06:41:01.790Z,11.1
2018-04-12T06:42:01.773Z,11.08
2018-04-12T06:43:01.491Z,11.1
2018-04-12T06:44:01.722Z,11.11
2018-04-12T06:45:01.696Z,11.14
2018-04-12T06:46:01.677Z,11.17
2018-04-12T06:47:01.650Z,11.14
2018-04-12T06:48:01.664Z,11.14
2018-04-12T06:49:01.602Z,11.14
2018-04-12T06:50:01.589Z,11.14
2018-04-12T06:51:01.559Z,11.14
2018-04-12T06:52:01.537Z,11.18
2018-04-12T06:53:01.526Z,11.12
2018-04-12T06:54:01.568Z,11.14
2018-04-12T06:55:01.481Z,11.19
2018-04-12T06:56:01.450Z,11.26
2018-04-12T06:57:01.430Z,11.29
2018-04-12T06:58:01.157Z,11.36
2018-04-12T06:59:01.383Z,11.33
2018-04-12T07:00:01.123Z,11.5
2018-04-12T07:01:01.344Z,11.4
2018-04-12T07:02:01.065Z,11.44
2018-04-12T07:03:01.049Z,11.59
2018-04-12T07:04:00.775Z,11.57
2018-04-12T07:05:01.256Z,11.63
2018-04-12T07:06:01.371Z,11.59
2018-04-12T07:07:00.961Z,11.75
2018-04-12T07:08:01.182Z,11.83
2018-04-12T07:09:00.916Z,11.81
2018-04-12T07:10:01.658Z,11.86
2018-04-12T07:11:01.120Z,11.84
2018-04-12T07:12:01.104Z,11.88
2018-04-12T07:13:01.097Z,11.84
2018-04-12T07:14:00.958Z,11.9
2018-04-12T07:15:01.526Z,11.9
2018-04-12T07:16:00.772Z,11.87
2018-04-12T07:17:01.294Z,11.84
2018-04-12T07:18:00.968Z,11.94
2018-04-12T07:19:00.950Z,11.81
2018-04-12T07:20:00.938Z,11.99
2018-04-12T07:21:00.907Z,11.86
2018-04-12T07:22:01.160Z,12.03
2018-04-12T07:23:01.092Z,12
2018-04-12T07:24:00.599Z,11.97
2018-04-12T07:25:00.328Z,12.03
2018-04-12T07:26:00.322Z,11.99
2018-04-12T07:27:00.788Z,11.97
2018-04-12T07:28:00.514Z,12.02
2018-04-12T07:29:00.498Z,11.95
2018-04-12T07:30:00.787Z,11.94
2018-04-12T07:31:00.694Z,11.87
2018-04-12T07:32:00.682Z,11.88
2018-04-12T07:33:00.710Z,11.97
2018-04-12T07:34:00.650Z,12
2018-04-12T07:35:00.622Z,11.97
2018-04-12T07:36:00.601Z,12.02
2018-04-12T07:37:00.569Z,12
2018-04-12T07:38:00.546Z,12.02
2018-04-12T07:39:00.527Z,12.12
2018-04-12T07:40:00.504Z,11.97
2018-04-12T07:41:00.485Z,12.03
2018-04-12T07:42:00.211Z,12.18
2018-04-12T07:43:00.439Z,12.17
2018-04-12T07:44:00.423Z,12.25
2018-04-12T07:45:00.399Z,12.25
2018-04-12T07:46:00.780Z,12.29
2018-04-12T07:47:00.355Z,12.27
2018-04-12T07:48:00.332Z,12.28
2018-04-12T07:49:00.412Z,12.35
2018-04-12T07:50:00.293Z,12.39
2018-04-12T07:51:00.274Z,12.43
2018-04-12T07:52:00.256Z,12.4
2018-04-12T07:53:00.229Z,12.43
2018-04-12T07:54:00.215Z,12.55
2018-04-12T07:55:00.184Z,12.42
2018-04-12T07:56:00.168Z,12.58
2018-04-12T07:56:59.900Z,12.4
2018-04-12T07:58:00.128Z,12.55
2018-04-12T07:59:00.106Z,12.43
2018-04-12T08:00:00.079Z,12.37
2018-04-12T08:01:00.068Z,12.54
2018-04-12T08:02:00.505Z,12.39
2018-04-12T08:02:59.772Z,12.55
2018-04-12T08:04:00.668Z,12.5
2018-04-12T08:05:01.004Z,12.47
2018-04-12T08:05:59.965Z,12.47
2018-04-12T08:07:00.320Z,12.45
2018-04-12T08:08:00.018Z,12.49
2018-04-12T08:08:59.896Z,12.4
2018-04-12T08:09:59.876Z,12.45
2018-04-12T08:10:59.867Z,12.5
2018-04-12T08:11:59.585Z,12.55
2018-04-12T08:13:00.436Z,12.46
2018-04-12T08:13:59.804Z,12.55
2018-04-12T08:14:59.530Z,12.45
2018-04-12T08:15:59.790Z,12.49
2018-04-12T08:16:59.345Z,12.47
2018-04-12T08:17:59.828Z,12.42
2018-04-12T08:19:00.156Z,12.46
2018-04-12T08:19:59.679Z,12.46
2018-04-12T08:20:59.664Z,12.46
2018-04-12T08:21:59.631Z,12.6
2018-04-12T08:22:59.609Z,12.57
2018-04-12T08:23:59.705Z,12.6
2018-04-12T08:24:59.324Z,12.62
2018-04-12T08:25:59.301Z,12.64
2018-04-12T08:26:59.529Z,12.62
2018-04-12T08:27:59.504Z,12.75
2018-04-12T08:28:59.540Z,12.79
2018-04-12T08:29:59.822Z,12.85
2018-04-12T08:30:59.451Z,12.86
2018-04-12T08:31:59.432Z,12.93
2018-04-12T08:32:58.911Z,12.98
2018-04-12T08:33:59.145Z,13.18
2018-04-12T08:34:59.118Z,13.2
2018-04-12T08:35:59.349Z,13.28
2018-04-12T08:36:59.336Z,13.3
2018-04-12T08:37:59.310Z,13.33
2018-04-12T08:38:59.297Z,13.39
2018-04-12T08:39:59.032Z,13.46
2018-04-12T08:40:59.252Z,13.56
2018-04-12T08:41:58.736Z,13.53
2018-04-12T08:42:59.215Z,13.6
2018-04-12T08:43:58.949Z,13.75
2018-04-12T08:44:59.178Z,13.78
2018-04-12T08:45:59.331Z,13.9
2018-04-12T08:46:59.143Z,13.95
2018-04-12T08:47:59.128Z,13.95
2018-04-12T08:48:59.102Z,13.89
2018-04-12T08:49:59.093Z,13.9
2018-04-12T08:50:58.826Z,13.89
2018-04-12T08:51:59.080Z,13.86
2018-04-12T08:52:59.038Z,13.79
2018-04-12T08:53:58.770Z,13.77
2018-04-12T08:54:59.003Z,13.81
2018-04-12T08:55:59.033Z,13.87
2018-04-12T08:56:58.961Z,13.86
2018-04-12T08:57:58.696Z,13.87
2018-04-12T08:58:58.931Z,13.75
2018-04-12T08:59:58.905Z,13.72
2018-04-12T09:00:58.884Z,13.59
2018-04-12T09:01:58.872Z,13.62
2018-04-12T09:02:58.600Z,13.47
2018-04-12T09:03:58.979Z,13.6
2018-04-12T09:05:00.132Z,13.52
2018-04-12T09:06:00.402Z,13.38
2018-04-12T09:06:58.773Z,13.38
2018-04-12T09:07:58.760Z,13.31
2018-04-12T09:08:58.789Z,13.31
2018-04-12T09:09:58.726Z,13.28
2018-04-12T09:10:58.709Z,13.25
2018-04-12T09:11:58.734Z,13.18
2018-04-12T09:12:58.661Z,13.2
2018-04-12T09:13:58.645Z,13.13
2018-04-12T09:14:58.626Z,13.18
2018-04-12T09:15:58.422Z,13.11
2018-04-12T09:16:58.586Z,13.09
2018-04-12T09:17:58.684Z,13.09
2018-04-12T09:18:58.551Z,13.04
2018-04-12T09:19:58.532Z,13.15
2018-04-12T09:20:58.505Z,13.19
2018-04-12T09:21:58.246Z,13.03
2018-04-12T09:22:58.475Z,13.11
2018-04-12T09:23:58.458Z,13.15
2018-04-12T09:24:58.432Z,13.08
2018-04-12T09:25:58.411Z,13.03
2018-04-12T09:26:58.391Z,13.01
2018-04-12T09:27:58.376Z,13.04
2018-04-12T09:28:58.353Z,13.04
2018-04-12T09:29:57.840Z,13
2018-04-12T09:30:58.318Z,13.05
2018-04-12T09:31:58.049Z,13.09
2018-04-12T09:32:57.782Z,13.13
2018-04-12T09:33:58.266Z,13.13
2018-04-12T09:34:58.238Z,13.16
2018-04-12T09:35:58.237Z,13.19
2018-04-12T09:36:57.955Z,13.19
2018-04-12T09:37:57.932Z,13.35
2018-04-12T09:38:57.919Z,13.37
2018-04-12T09:39:58.139Z,13.49
2018-04-12T09:40:58.125Z,13.47
2018-04-12T09:41:58.106Z,13.56
2018-04-12T09:42:58.090Z,13.53
2018-04-12T09:43:58.126Z,13.63
2018-04-12T09:44:58.054Z,13.63
2018-04-12T09:45:57.786Z,13.72
2018-04-12T09:46:58.014Z,13.78
2018-04-12T09:47:57.993Z,13.9
2018-04-12T09:48:57.980Z,14
2018-04-12T09:49:57.711Z,14.04
2018-04-12T09:50:57.695Z,14.05
2018-04-12T09:51:57.925Z,14.15
2018-04-12T09:52:57.909Z,14.15
2018-04-12T09:53:57.892Z,14.22
2018-04-12T09:54:57.629Z,14.18
2018-04-12T09:55:57.861Z,14.25
2018-04-12T09:56:57.587Z,14.35
2018-04-12T09:57:57.823Z,14.28
2018-04-12T09:58:57.806Z,14.3
2018-04-12T09:59:58.065Z,14.45
2018-04-12T10:00:57.774Z,14.53
2018-04-12T10:01:57.756Z,14.65
2018-04-12T10:02:57.734Z,14.68
2018-04-12T10:03:57.718Z,14.78
2018-04-12T10:04:57.757Z,14.96
2018-04-12T10:05:57.577Z,14.97
2018-04-12T10:06:57.747Z,14.99
2018-04-12T10:07:58.145Z,15.1
2018-04-12T10:08:58.433Z,15.14
2018-04-12T10:09:58.564Z,15.21
2018-04-12T10:10:57.606Z,15.18
2018-04-12T10:11:57.588Z,15.28
2018-04-12T10:12:57.576Z,15.24
2018-04-12T10:13:57.564Z,15.31
2018-04-12T10:14:57.950Z,15.4
2018-04-12T10:15:59.025Z,15.43
2018-04-12T10:16:58.009Z,15.46
2018-04-12T10:17:57.495Z,15.29
2018-04-12T10:18:57.484Z,15.17
2018-04-12T10:19:57.462Z,15.19
2018-04-12T10:20:57.451Z,15.19
2018-04-12T10:21:57.445Z,15.1
2018-04-12T10:22:57.469Z,15.09
2018-04-12T10:23:57.509Z,15.03
2018-04-12T10:24:57.523Z,15.1
2018-04-12T10:25:57.121Z,15.19
2018-04-12T10:26:57.114Z,15.15
2018-04-12T10:27:56.837Z,15.19
2018-04-12T10:28:57.321Z,15.21
2018-04-12T10:29:57.538Z,15.24
2018-04-12T10:30:57.074Z,15.37
2018-04-12T10:31:57.026Z,15.35
2018-04-12T10:32:57.340Z,15.36
2018-04-12T10:33:57.244Z,15.33
2018-04-12T10:34:57.222Z,15.39
2018-04-12T10:35:57.208Z,15.42
2018-04-12T10:36:57.195Z,15.51
2018-04-12T10:37:57.280Z,15.46
2018-04-12T10:38:57.161Z,15.43
2018-04-12T10:39:56.898Z,15.47
2018-04-12T10:40:57.136Z,15.46
2018-04-12T10:41:56.870Z,15.39
2018-04-12T10:42:57.113Z,15.43
2018-04-12T10:43:56.833Z,15.31
2018-04-12T10:44:57.068Z,15.47
2018-04-12T10:45:57.046Z,15.57
2018-04-12T10:46:56.785Z,15.47
2018-04-12T10:47:57.019Z,15.47
2018-04-12T10:48:56.756Z,15.55
2018-04-12T10:49:56.985Z,15.57
2018-04-12T10:50:57.175Z,15.57
2018-04-12T10:51:56.787Z,15.77
2018-04-12T10:52:56.939Z,15.8
2018-04-12T10:53:56.923Z,15.88
2018-04-12T10:54:56.909Z,15.98
2018-04-12T10:55:56.896Z,16.05
2018-04-12T10:56:56.625Z,16.2
2018-04-12T10:57:56.859Z,16.33
2018-04-12T10:58:56.867Z,16.39
2018-04-12T10:59:56.829Z,16.43
2018-04-12T11:00:56.819Z,16.51
2018-04-12T11:01:56.793Z,16.47
2018-04-12T11:02:56.789Z,16.53
2018-04-12T11:03:56.776Z,16.56
2018-04-12T11:04:56.574Z,16.61
2018-04-12T11:05:56.738Z,16.57
2018-04-12T11:06:56.473Z,16.61
2018-04-12T11:07:56.459Z,16.61
2018-04-12T11:08:56.444Z,16.64
2018-04-12T11:09:56.676Z,16.68
2018-04-12T11:10:56.671Z,16.86
2018-04-12T11:11:56.648Z,16.87
2018-04-12T11:12:56.389Z,16.93
2018-04-12T11:13:56.666Z,16.87
2018-04-12T11:14:56.618Z,17.02
2018-04-12T11:15:56.341Z,17.01
2018-04-12T11:16:56.324Z,17.05
2018-04-12T11:17:56.560Z,17.22
2018-04-12T11:18:56.431Z,17.22
2018-04-12T11:19:56.289Z,17.2
2018-04-12T11:20:56.527Z,17.15
2018-04-12T11:21:56.257Z,17.29
2018-04-12T11:22:56.877Z,17.39
2018-04-12T11:23:57.436Z,17.44
2018-04-12T11:24:56.279Z,17.48
2018-04-12T11:25:56.497Z,17.52
2018-04-12T11:26:56.431Z,17.7
2018-04-12T11:27:56.170Z,17.74
2018-04-12T11:28:56.400Z,17.86
2018-04-12T11:29:56.168Z,17.95
2018-04-12T11:30:56.127Z,18
2018-04-12T11:31:56.419Z,17.95
2018-04-12T11:32:55.850Z,17.97
2018-04-12T11:33:56.086Z,17.92
2018-04-12T11:34:56.410Z,18.22
2018-04-12T11:35:56.307Z,18.2
2018-04-12T11:36:56.397Z,18.25
2018-04-12T11:37:56.290Z,18.13
2018-04-12T11:38:56.021Z,18.16
2018-04-12T11:39:56.257Z,18.2
2018-04-12T11:40:56.242Z,18.26
2018-04-12T11:41:56.231Z,18.33
2018-04-12T11:42:56.062Z,18.33
2018-04-12T11:43:55.705Z,18.33
2018-04-12T11:44:56.190Z,18.55
2018-04-12T11:45:56.179Z,18.49
2018-04-12T11:46:56.262Z,18.65
2018-04-12T11:47:56.147Z,18.74
2018-04-12T11:48:56.139Z,18.71
2018-04-12T11:49:56.332Z,18.73
2018-04-12T11:50:56.375Z,18.6
2018-04-12T11:51:56.098Z,18.71
2018-04-12T11:52:56.083Z,18.81
2018-04-12T11:53:55.821Z,18.86
2018-04-12T11:54:56.066Z,18.86
2018-04-12T11:55:56.096Z,18.88
2018-04-12T11:56:56.034Z,18.75
2018-04-12T11:57:55.765Z,18.71
2018-04-12T11:58:55.999Z,18.8
2018-04-12T11:59:55.986Z,18.83
2018-04-12T12:00:55.972Z,18.93
2018-04-12T12:01:55.955Z,18.86
2018-04-12T12:02:55.942Z,18.95
2018-04-12T12:03:55.933Z,18.95
2018-04-12T12:04:55.918Z,19
2018-04-12T12:05:55.902Z,18.99
2018-04-12T12:06:55.940Z,19.08
2018-04-12T12:07:55.880Z,19.21
2018-04-12T12:08:55.861Z,19.24
2018-04-12T12:09:55.863Z,19.31
2018-04-12T12:10:55.835Z,19.4
2018-04-12T12:11:55.826Z,19.47
2018-04-12T12:12:55.562Z,19.44
2018-04-12T12:13:55.789Z,19.52
2018-04-12T12:14:55.532Z,19.48
2018-04-12T12:15:55.516Z,19.45
2018-04-12T12:16:56.805Z,19.48
2018-04-12T12:17:57.573Z,19.45
2018-04-12T12:18:55.723Z,19.51
2018-04-12T12:19:55.514Z,19.52
2018-04-12T12:20:55.693Z,19.51
2018-04-12T12:21:55.681Z,19.55
2018-04-12T12:22:55.662Z,19.52
2018-04-12T12:23:55.957Z,19.4
2018-04-12T12:24:55.639Z,19.37
2018-04-12T12:25:55.628Z,19.44
2018-04-12T12:26:55.613Z,19.47
2018-04-12T12:27:55.345Z,19.52
2018-04-12T12:28:55.511Z,19.55
2018-04-12T12:29:55.569Z,19.66
2018-04-12T12:30:55.056Z,19.71
2018-04-12T12:31:55.544Z,19.76
2018-04-12T12:32:55.552Z,19.84
2018-04-12T12:33:55.308Z,19.77
2018-04-12T12:34:55.589Z,19.82
2018-04-12T12:35:55.488Z,19.66
2018-04-12T12:36:55.472Z,19.64
2018-04-12T12:37:55.455Z,19.66
2018-04-12T12:38:55.479Z,19.77
2018-04-12T12:39:55.427Z,19.71
2018-04-12T12:40:55.577Z,19.7
2018-04-12T12:41:55.152Z,19.74
2018-04-12T12:42:55.135Z,19.76
2018-04-12T12:43:55.229Z,19.73
2018-04-12T12:44:55.358Z,19.74
2018-04-12T12:45:55.088Z,19.74
2018-04-12T12:46:55.078Z,19.85
2018-04-12T12:47:55.308Z,19.86
2018-04-12T12:48:55.047Z,19.81
2018-04-12T12:49:55.037Z,19.79
2018-04-12T12:50:55.279Z,19.82
2018-04-12T12:51:55.255Z,19.79
2018-04-12T12:52:55.295Z,19.76
2018-04-12T12:53:54.977Z,19.66
2018-04-12T12:54:55.216Z,19.7
2018-04-12T12:55:55.277Z,19.71
2018-04-12T12:56:55.181Z,19.77
2018-04-12T12:57:55.169Z,19.84
2018-04-12T12:58:55.153Z,19.86
2018-04-12T12:59:55.142Z,19.95
2018-04-12T13:00:55.126Z,20.07
2018-04-12T13:01:55.113Z,20.18
2018-04-12T13:02:55.096Z,20.21